Time;durP1;ratioP1;P1;durP2;ratioP2;P2;SDS_P1;SDS_P2;PMS_P1;PMS_P2;Temp;Humidity;BMP_temperature;BMP_pressure;BME280_temperature;BME280_humidity;BME280_pressure;Samples;Min_cycle;Max_cycle;Signal;HPM_P1;HPM_P2
2023/07/28 00:09:33;;;;;;;1.70;1.42;;;;;;;20.94;100.00;99980.84;20985234;28;20540;-64
2023/07/28 00:19:35;;;;;;;2.13;1.48;;;;;;;20.90;100.00;99971.41;21009364;28;20126;-64
2023/07/28 00:29:36;;;;;;;2.85;1.63;;;;;;;20.92;100.00;99971.22;20989011;28;20507;-64
2023/07/28 00:39:38;;;;;;;2.85;2.58;;;;;;;20.85;100.00;99973.81;21005120;28;20568;-64
2023/07/28 00:49:40;;;;;;;2.10;1.58;;;;;;;20.88;100.00;99962.63;21012214;28;20053;-64
2023/07/28 00:59:42;;;;;;;1.65;1.52;;;;;;;20.87;100.00;99963.66;21001336;28;20443;-64
2023/07/28 01:09:53;;;;;;;2.05;1.63;;;;;;;20.87;100.00;99971.75;21013744;28;20451;-64
2023/07/28 01:19:55;;;;;;;2.33;1.80;;;;;;;20.82;100.00;99968.75;21027637;28;20052;-64
2023/07/28 01:29:57;;;;;;;3.13;2.00;;;;;;;20.85;100.00;99984.63;20994471;28;20493;-64
2023/07/28 01:39:58;;;;;;;2.60;1.88;;;;;;;20.83;100.00;99981.25;21008481;28;20044;-64
2023/07/28 01:50:00;;;;;;;3.08;2.08;;;;;;;20.83;100.00;99987.50;21016799;28;20044;-64
2023/07/28 02:00:03;;;;;;;2.40;2.08;;;;;;;20.83;100.00;99987.50;21006817;28;20060;-64
2023/07/28 02:10:13;;;;;;;2.22;1.98;;;;;;;20.82;100.00;99985.81;20982202;28;20067;-64
2023/07/28 02:20:15;;;;;;;3.03;2.15;;;;;;;20.81;100.00;99983.31;21019834;28;20087;-64
2023/07/28 02:30:17;;;;;;;3.30;2.00;;;;;;;20.80;100.00;99987.84;20996289;28;20087;-64
2023/07/28 02:40:19;;;;;;;3.90;2.33;;;;;;;20.80;100.00;99987.84;20991229;28;20443;-64
2023/07/28 02:50:21;;;;;;;4.57;2.42;;;;;;;20.79;100.00;99990.75;20984462;28;20059;-64
2023/07/28 03:00:23;;;;;;;3.35;2.20;;;;;;;20.78;100.00;99994.44;20992394;28;20562;-64
2023/07/28 03:10:25;;;;;;;2.50;2.28;;;;;;;20.78;100.00;100003.38;21061698;28;20048;-64
2023/07/28 03:20:27;;;;;;;3.15;2.53;;;;;;;20.78;100.00;99999.88;21066830;28;20127;-64
2023/07/28 03:30:28;;;;;;;3.75;2.10;;;;;;;20.79;100.00;100004.28;21067375;28;20468;-64
2023/07/28 03:40:30;;;;;;;2.58;2.25;;;;;;;20.80;100.00;100014.09;21066486;28;20052;-64
2023/07/28 03:50:32;;;;;;;3.80;2.05;;;;;;;20.81;100.00;100029.28;21065559;28;20077;-64
2023/07/28 04:00:34;;;;;;;2.88;2.22;;;;;;;20.80;100.00;100014.91;21047913;28;20485;-64
2023/07/28 04:10:36;;;;;;;2.65;2.40;;;;;;;20.80;100.00;100033.84;21065831;28;20048;-64
2023/07/28 04:20:37;;;;;;;3.97;2.53;;;;;;;20.81;100.00;100046.34;21064904;28;20083;-64
2023/07/28 04:30:39;;;;;;;2.60;2.28;;;;;;;20.81;100.00;100053.63;21075854;28;20044;-64
2023/07/28 04:40:45;;;;;;;3.95;2.30;;;;;;;20.80;100.00;100055.47;21078911;28;20044;-64
2023/07/28 04:50:49;;;;;;;4.87;3.07;;;;;;;20.80;100.00;100068.19;21078025;28;20574;-64
2023/07/28 05:01:23;;;;;;;2.85;2.20;;;;;;;20.79;100.00;100077.31;21038732;28;20890;-64
2023/07/28 05:11:25;;;;;;;4.18;2.33;;;;;;;20.79;100.00;100086.25;21076217;28;20055;-64
2023/07/28 05:21:27;;;;;;;3.28;2.17;;;;;;;20.78;100.00;100087.25;21075697;28;20561;-64
2023/07/28 05:31:29;;;;;;;4.32;2.70;;;;;;;20.78;100.00;100084.53;21058070;28;20056;-64
2023/07/28 05:41:32;;;;;;;3.63;2.60;;;;;;;20.72;100.00;100079.84;21072874;28;20130;-64
2023/07/28 05:51:34;;;;;;;3.42;2.58;;;;;;;20.76;100.00;100085.72;21073842;28;20052;-64
2023/07/28 06:01:36;;;;;;;3.72;2.70;;;;;;;20.74;100.00;100099.44;21024358;28;20576;-64
2023/07/28 06:11:57;;;;;;;4.13;2.90;;;;;;;20.73;100.00;100095.03;21071919;28;20052;-64
2023/07/28 06:22:01;;;;;;;3.17;2.70;;;;;;;20.73;100.00;100111.28;21072372;28;20093;-64
2023/07/28 06:32:05;;;;;;;4.32;2.60;;;;;;;20.73;100.00;100122.91;21053109;28;20131;-64
2023/07/28 06:42:07;;;;;;;3.13;2.80;;;;;;;20.73;100.00;100141.84;21035423;28;20048;-64
2023/07/28 06:52:12;;;;;;;3.13;2.50;;;;;;;20.73;100.00;100154.56;21068157;28;20093;-64
2023/07/28 07:02:14;;;;;;;3.42;2.78;;;;;;;20.73;100.00;100170.78;21040451;28;20048;-64
2023/07/28 07:12:16;;;;;;;4.55;2.97;;;;;;;20.76;100.00;100196.63;21019821;28;20048;-65
2023/07/28 07:22:17;;;;;;;6.65;3.00;;;;;;;20.81;100.00;100205.13;20989346;28;20484;-64
2023/07/28 07:32:19;;;;;;;4.10;3.17;;;;;;;20.91;100.00;100207.59;20946849;28;20056;-64
2023/07/28 07:42:22;;;;;;;4.22;2.80;;;;;;;21.04;100.00;100216.06;20949169;28;20052;-65
2023/07/28 07:52:24;;;;;;;4.15;2.67;;;;;;;21.17;100.00;100209.22;20951868;28;20439;-64
2023/07/28 08:02:26;;;;;;;5.00;3.10;;;;;;;21.25;100.00;100226.28;20948637;28;20049;-63
2023/07/28 08:12:27;;;;;;;3.30;2.60;;;;;;;21.38;100.00;100243.84;20961382;28;20041;-63
2023/07/28 08:22:29;;;;;;;3.90;2.70;;;;;;;21.48;100.00;100243.63;20992541;28;20048;-65
2023/07/28 08:32:31;;;;;;;6.53;2.72;;;;;;;21.53;100.00;100255.59;20978893;28;20090;-65
2023/07/28 08:42:38;;;;;;;7.40;3.03;;;;;;;21.54;100.00;100254.59;20985617;28;20060;-65
2023/07/28 08:52:39;;;;;;;4.65;2.72;;;;;;;21.50;100.00;100261.38;21004813;28;20049;-65
2023/07/28 09:02:42;;;;;;;5.40;2.88;;;;;;;21.53;100.00;100271.03;20976359;28;20102;-65
2023/07/28 09:12:48;;;;;;;5.65;3.08;;;;;;;21.50;100.00;100276.78;20987281;28;20049;-65
2023/07/28 09:22:50;;;;;;;6.60;2.67;;;;;;;21.59;100.00;100267.59;20983151;28;20053;-65
2023/07/28 09:32:54;;;;;;;4.57;2.63;;;;;;;21.65;100.00;100285.03;20969101;28;20155;-65
2023/07/28 09:42:56;;;;;;;4.25;2.30;;;;;;;21.69;100.00;100287.22;20990345;28;20071;-65
2023/07/28 09:53:01;;;;;;;2.22;2.03;;;;;;;21.75;100.00;100295.66;21002601;28;20186;-65
2023/07/28 10:03:03;;;;;;;5.00;2.72;;;;;;;21.75;100.00;100299.22;20988458;28;20551;-65
2023/07/28 10:13:05;;;;;;;3.13;2.08;;;;;;;21.77;100.00;100302.59;21006530;28;20049;-65
2023/07/28 10:23:15;;;;;;;3.67;2.10;;;;;;;21.81;100.00;100303.94;20988975;28;20449;-65
2023/07/28 10:33:30;;;;;;;3.55;2.10;;;;;;;21.86;100.00;100301.53;20967318;28;20072;-64
2023/07/28 10:43:31;;;;;;;2.65;1.85;;;;;;;21.90;100.00;100303.88;21010458;28;20175;-64
2023/07/28 10:53:33;;;;;;;2.10;1.90;;;;;;;21.87;100.00;100303.22;21023165;28;20056;-64
2023/07/28 11:03:35;;;;;;;2.88;1.77;;;;;;;21.84;100.00;100298.16;21062202;28;20045;-64
2023/07/28 11:13:37;;;;;;;2.40;2.20;;;;;;;21.80;100.00;100310.38;20947096;28;20050;-65
2023/07/28 11:23:45;;;;;;;2.45;1.77;;;;;;;21.73;100.00;100302.09;20983237;28;20087;-65
2023/07/28 11:33:46;;;;;;;3.40;2.17;;;;;;;21.75;100.00;100317.34;20963229;28;20798;-65
2023/07/28 11:43:49;;;;;;;3.10;2.10;;;;;;;21.73;100.00;100325.66;20952434;28;20489;-64
2023/07/28 11:53:51;;;;;;;2.83;2.38;;;;;;;21.73;100.00;100331.06;21022645;28;20047;-64
2023/07/28 12:03:52;;;;;;;2.47;2.17;;;;;;;21.76;100.00;100332.56;20984817;28;20050;-64
2023/07/28 12:13:54;;;;;;;3.42;2.50;;;;;;;21.78;100.00;100344.06;20994883;28;20070;-65
2023/07/28 12:23:59;;;;;;;2.70;2.40;;;;;;;21.82;100.00;100346.28;21003488;28;20101;-65
2023/07/28 12:34:03;;;;;;;2.92;2.40;;;;;;;21.84;100.00;100346.94;20995550;28;20036;-65
2023/07/28 12:44:05;;;;;;;2.60;2.40;;;;;;;21.85;100.00;100347.75;20992192;28;20090;-65
2023/07/28 12:54:08;;;;;;;3.47;2.08;;;;;;;21.83;100.00;100356.09;20997158;28;20650;-65
2023/07/28 13:04:09;;;;;;;4.15;3.17;;;;;;;21.84;100.00;100355.06;21004425;28;20470;-64
2023/07/28 13:14:11;;;;;;;2.90;2.17;;;;;;;21.83;100.00;100350.66;20986272;28;20100;-64
2023/07/28 13:24:13;;;;;;;5.45;2.30;;;;;;;21.82;100.00;100354.41;21003477;28;20139;-65
2023/07/28 13:34:16;;;;;;;3.40;2.85;;;;;;;21.82;100.00;100351.69;20982343;28;20049;-64
2023/07/28 13:44:18;;;;;;;3.58;2.83;;;;;;;21.82;100.00;100354.41;20969400;28;20052;-64
2023/07/28 13:54:19;;;;;;;5.38;3.50;;;;;;;21.80;100.00;100353.72;20974336;28;20527;-64
2023/07/28 14:04:24;;;;;;;3.55;3.10;;;;;;;21.79;100.00;100343.91;20989149;28;20041;-64
2023/07/28 14:14:26;;;;;;;9.73;3.70;;;;;;;21.77;100.00;100345.94;20967297;28;20068;-65
2023/07/28 14:24:27;;;;;;;4.13;3.13;;;;;;;21.76;100.00;100360.53;20992787;28;20044;-65
2023/07/28 14:34:29;;;;;;;3.50;3.20;;;;;;;21.77;100.00;100362.22;21000775;28;20634;-65
2023/07/28 14:44:31;;;;;;;4.28;3.38;;;;;;;21.78;100.00;100353.06;20999278;28;20041;-69
2023/07/28 14:54:34;;;;;;;3.55;3.25;;;;;;;21.78;100.00;100366.59;20962315;28;20037;-68
2023/07/28 15:04:36;;;;;;;4.85;3.70;;;;;;;21.79;100.00;100352.03;20961766;28;20072;-68
2023/07/28 15:14:37;;;;;;;4.97;4.55;;;;;;;21.88;100.00;100359.09;20952786;28;20064;-70
2023/07/28 15:24:39;;;;;;;5.70;5.10;;;;;;;21.94;100.00;100370.25;20947510;28;20526;-70
2023/07/28 15:34:41;;;;;;;5.72;4.18;;;;;;;22.04;100.00;100379.00;20955100;28;20135;-71
2023/07/28 15:44:42;;;;;;;4.18;3.78;;;;;;;22.09;100.00;100373.06;20949685;28;20048;-71
2023/07/28 15:54:44;;;;;;;5.55;3.15;;;;;;;22.07;100.00;100375.94;20948282;28;20101;-70
2023/07/28 16:04:46;;;;;;;3.70;3.40;;;;;;;21.99;100.00;100365.16;20941446;28;20051;-73
2023/07/28 16:14:48;;;;;;;3.13;2.85;;;;;;;21.99;100.00;100365.16;20940379;28;20044;-72
2023/07/28 16:24:49;;;;;;;4.30;3.63;;;;;;;21.95;100.00;100375.53;20975501;28;20044;-73
2023/07/28 16:34:51;;;;;;;3.95;3.53;;;;;;;21.90;100.00;100377.91;20997435;28;20048;-71
2023/07/28 16:44:53;;;;;;;5.45;2.90;;;;;;;21.84;100.00;100374.03;21009213;28;20045;-72
2023/07/28 16:54:55;;;;;;;2.97;2.78;;;;;;;21.81;100.00;100382.50;21020480;28;20528;-69
2023/07/28 17:04:56;;;;;;;2.60;2.40;;;;;;;21.75;100.00;100369.66;21016251;28;20241;-69
2023/07/28 17:14:58;;;;;;;2.63;2.42;;;;;;;21.70;100.00;100372.91;21014929;28;20138;-69
2023/07/28 17:25:00;;;;;;;3.80;2.47;;;;;;;21.68;100.00;100366.81;21017491;28;20076;-67
2023/07/28 17:35:01;;;;;;;3.83;2.63;;;;;;;21.64;100.00;100362.75;21002878;28;20511;-68
2023/07/28 17:45:06;;;;;;;7.55;3.97;;;;;;;21.62;100.00;100374.75;20994179;28;20044;-68
2023/07/28 17:55:09;;;;;;;3.40;3.10;;;;;;;21.58;100.00;100375.09;21011038;28;20135;-67
2023/07/28 18:05:11;;;;;;;6.65;3.20;;;;;;;21.61;100.00;100392.88;21003593;28;20466;-68
2023/07/28 18:15:13;;;;;;;4.07;3.08;;;;;;;21.58;100.00;100385.09;21011816;28;20050;-67
2023/07/28 18:25:15;;;;;;;3.95;2.75;;;;;;;21.60;100.00;100383.06;20985409;28;20520;-67
2023/07/28 18:35:16;;;;;;;4.15;2.50;;;;;;;21.59;100.00;100387.63;20973213;28;20441;-66
2023/07/28 18:45:18;;;;;;;3.08;2.75;;;;;;;21.58;100.00;100380.50;20991730;28;20129;-66
2023/07/28 18:55:20;;;;;;;3.50;2.50;;;;;;;21.57;100.00;100395.06;20990306;28;20048;-66
2023/07/28 19:05:22;;;;;;;2.53;2.22;;;;;;;21.56;100.00;100389.84;20941678;28;20047;-66
2023/07/28 19:15:24;;;;;;;4.60;2.42;;;;;;;21.54;100.00;100398.13;20943587;28;20094;-65
2023/07/28 19:25:46;;;;;;;2.75;2.47;;;;;;;21.49;100.00;100403.22;21012995;28;20119;-66
2023/07/28 19:35:48;;;;;;;3.08;2.40;;;;;;;21.42;100.00;100423.88;21022172;28;20059;-66
2023/07/28 19:45:51;;;;;;;3.20;2.40;;;;;;;21.40;100.00;100428.63;20981098;28;20050;-66
2023/07/28 19:55:53;;;;;;;2.28;2.08;;;;;;;21.39;100.00;100441.31;20986162;28;20080;-66
2023/07/28 20:05:55;;;;;;;2.45;2.25;;;;;;;21.40;100.00;100447.59;20999965;28;20071;-66
2023/07/28 20:15:56;;;;;;;3.03;2.72;;;;;;;21.38;100.00;100455.03;20998951;28;20105;-66
2023/07/28 20:25:58;;;;;;;3.10;2.90;;;;;;;21.36;100.00;100459.78;20997508;28;20049;-66
2023/07/28 20:36:00;;;;;;;2.40;2.20;;;;;;;21.26;100.00;100433.72;21005655;28;20040;-66
2023/07/28 20:46:02;;;;;;;2.40;2.20;;;;;;;21.28;100.00;100439.81;20913399;28;20717;-66
2023/07/28 20:56:04;;;;;;;2.38;2.17;;;;;;;21.26;100.00;100443.69;20913180;28;20059;-66
2023/07/28 21:06:06;;;;;;;2.53;2.33;;;;;;;21.24;100.00;100443.88;20912368;28;20129;-66
2023/07/28 21:16:07;;;;;;;2.50;2.30;;;;;;;21.24;100.00;100452.00;20910833;28;20051;-66
2023/07/28 21:26:09;;;;;;;2.38;2.17;;;;;;;21.23;100.00;100446.75;20926103;28;20060;-66
2023/07/28 21:36:11;;;;;;;2.40;2.20;;;;;;;21.15;100.00;100428.63;20973175;28;20135;-66
2023/07/28 21:46:12;;;;;;;2.78;2.58;;;;;;;21.16;100.00;100443.84;21075177;28;20105;-66
2023/07/28 21:56:14;;;;;;;3.25;2.15;;;;;;;21.15;100.00;100439.47;21075009;28;20055;-66
2023/07/28 22:06:17;;;;;;;2.20;2.00;;;;;;;21.12;100.00;100429.84;21074322;28;20055;-66
2023/07/28 22:16:18;;;;;;;2.40;2.20;;;;;;;21.10;100.00;100431.00;21073157;28;20052;-66
2023/07/28 22:26:20;;;;;;;2.00;1.90;;;;;;;21.09;100.00;100435.59;21071761;28;20056;-66
2023/07/28 22:36:22;;;;;;;2.42;2.20;;;;;;;21.08;100.00;100428.47;21057708;28;20131;-66
2023/07/28 22:46:23;;;;;;;2.75;2.28;;;;;;;21.06;100.00;100426.94;21071276;28;20572;-66
2023/07/28 22:56:25;;;;;;;2.13;1.95;;;;;;;21.02;100.00;100412.94;21070388;28;20121;-66
2023/07/28 23:06:27;;;;;;;2.35;2.15;;;;;;;21.03;100.00;100402.94;21069182;28;20044;-66
2023/07/28 23:16:28;;;;;;;3.42;2.40;;;;;;;21.01;100.00;100395.00;21069740;28;20052;-66
2023/07/28 23:26:31;;;;;;;2.33;2.13;;;;;;;21.00;100.00;100399.56;21067161;28;20059;-66
2023/07/28 23:36:32;;;;;;;2.55;2.35;;;;;;;20.98;100.00;100395.31;21055716;28;20052;-66
2023/07/28 23:46:35;;;;;;;2.70;2.50;;;;;;;20.97;100.00;100380.94;21067570;28;20048;-66
2023/07/28 23:56:37;;;;;;;3.17;2.88;;;;;;;20.96;100.00;100373.84;21048780;28;20512;-66
